sensor_id;sensor_type;location;lat;lon;timestamp;P1;durP1;ratioP1;P2;durP2;ratioP2
92;SDS011;16232;48.800;9.002;2023-11-21T00:00:39;5.70;;;1.70;;
92;SDS011;16232;48.800;9.002;2023-11-21T00:03:07;3.77;;;1.80;;
92;SDS011;16232;48.800;9.002;2023-11-21T00:05:36;3.67;;;1.57;;
92;SDS011;16232;48.800;9.002;2023-11-21T00:08:04;3.67;;;1.50;;
92;SDS011;16232;48.800;9.002;2023-11-21T00:10:32;5.93;;;1.60;;
92;SDS011;16232;48.800;9.002;2023-11-21T00:12:59;4.67;;;1.70;;
92;SDS011;16232;48.800;9.002;2023-11-21T00:15:29;3.10;;;1.53;;
92;SDS011;16232;48.800;9.002;2023-11-21T00:17:57;4.03;;;1.73;;
92;SDS011;16232;48.800;9.002;2023-11-21T00:20:24;4.43;;;2.03;;
92;SDS011;16232;48.800;9.002;2023-11-21T00:22:52;5.73;;;2.00;;
92;SDS011;16232;48.800;9.002;2023-11-21T00:25:20;3.77;;;2.00;;
92;SDS011;16232;48.800;9.002;2023-11-21T00:27:47;4.20;;;2.00;;
92;SDS011;16232;48.800;9.002;2023-11-21T00:30:15;3.33;;;1.90;;
92;SDS011;16232;48.800;9.002;2023-11-21T00:32:42;4.43;;;1.90;;
92;SDS011;16232;48.800;9.002;2023-11-21T00:35:10;3.93;;;2.03;;
92;SDS011;16232;48.800;9.002;2023-11-21T00:37:37;4.77;;;2.27;;
92;SDS011;16232;48.800;9.002;2023-11-21T00:40:05;4.40;;;2.40;;
92;SDS011;16232;48.800;9.002;2023-11-21T00:42:34;5.37;;;2.20;;
92;SDS011;16232;48.800;9.002;2023-11-21T00:45:02;3.47;;;2.10;;
92;SDS011;16232;48.800;9.002;2023-11-21T00:47:30;7.23;;;2.10;;
92;SDS011;16232;48.800;9.002;2023-11-21T00:49:58;6.10;;;1.80;;
92;SDS011;16232;48.800;9.002;2023-11-21T00:52:26;3.23;;;1.87;;
92;SDS011;16232;48.800;9.002;2023-11-21T00:54:53;4.53;;;1.70;;
92;SDS011;16232;48.800;9.002;2023-11-21T00:57:21;6.87;;;2.30;;
92;SDS011;16232;48.800;9.002;2023-11-21T00:59:48;3.93;;;1.97;;
92;SDS011;16232;48.800;9.002;2023-11-21T01:02:15;6.37;;;2.00;;
92;SDS011;16232;48.800;9.002;2023-11-21T01:04:43;3.97;;;1.97;;
92;SDS011;16232;48.800;9.002;2023-11-21T01:07:12;7.00;;;2.07;;
92;SDS011;16232;48.800;9.002;2023-11-21T01:09:39;4.07;;;2.00;;
92;SDS011;16232;48.800;9.002;2023-11-21T01:12:07;6.00;;;2.00;;
92;SDS011;16232;48.800;9.002;2023-11-21T01:14:34;2.77;;;1.60;;
92;SDS011;16232;48.800;9.002;2023-11-21T01:17:02;3.70;;;1.80;;
92;SDS011;16232;48.800;9.002;2023-11-21T01:19:30;2.77;;;1.50;;
92;SDS011;16232;48.800;9.002;2023-11-21T01:21:57;5.20;;;1.70;;
92;SDS011;16232;48.800;9.002;2023-11-21T01:24:26;4.73;;;1.90;;
92;SDS011;16232;48.800;9.002;2023-11-21T01:26:53;5.57;;;2.07;;
92;SDS011;16232;48.800;9.002;2023-11-21T01:29:21;3.27;;;1.33;;
92;SDS011;16232;48.800;9.002;2023-11-21T01:31:48;2.73;;;1.43;;
92;SDS011;16232;48.800;9.002;2023-11-21T01:34:17;3.80;;;1.40;;
92;SDS011;16232;48.800;9.002;2023-11-21T01:36:45;6.03;;;1.77;;
92;SDS011;16232;48.800;9.002;2023-11-21T01:39:12;7.40;;;1.80;;
92;SDS011;16232;48.800;9.002;2023-11-21T01:41:43;3.97;;;1.50;;
92;SDS011;16232;48.800;9.002;2023-11-21T01:44:10;3.87;;;1.27;;
92;SDS011;16232;48.800;9.002;2023-11-21T01:46:38;5.20;;;1.70;;
92;SDS011;16232;48.800;9.002;2023-11-21T01:49:07;2.57;;;1.40;;
92;SDS011;16232;48.800;9.002;2023-11-21T01:51:35;2.60;;;1.63;;
92;SDS011;16232;48.800;9.002;2023-11-21T01:54:03;4.93;;;1.23;;
92;SDS011;16232;48.800;9.002;2023-11-21T01:56:31;4.27;;;1.57;;
92;SDS011;16232;48.800;9.002;2023-11-21T01:59:00;3.43;;;1.63;;
92;SDS011;16232;48.800;9.002;2023-11-21T02:01:28;4.80;;;2.00;;
92;SDS011;16232;48.800;9.002;2023-11-21T02:03:56;2.70;;;1.70;;
92;SDS011;16232;48.800;9.002;2023-11-21T02:06:23;2.10;;;1.43;;
92;SDS011;16232;48.800;9.002;2023-11-21T02:08:51;4.10;;;1.70;;
92;SDS011;16232;48.800;9.002;2023-11-21T02:11:18;9.20;;;1.97;;
92;SDS011;16232;48.800;9.002;2023-11-21T02:13:46;2.73;;;1.67;;
92;SDS011;16232;48.800;9.002;2023-11-21T02:16:16;2.27;;;1.40;;
92;SDS011;16232;48.800;9.002;2023-11-21T02:18:44;5.43;;;1.93;;
92;SDS011;16232;48.800;9.002;2023-11-21T02:21:12;4.47;;;1.40;;
92;SDS011;16232;48.800;9.002;2023-11-21T02:23:41;5.30;;;1.53;;
92;SDS011;16232;48.800;9.002;2023-11-21T02:26:09;3.97;;;1.40;;
92;SDS011;16232;48.800;9.002;2023-11-21T02:28:36;4.70;;;1.70;;
92;SDS011;16232;48.800;9.002;2023-11-21T02:31:04;4.03;;;1.60;;
92;SDS011;16232;48.800;9.002;2023-11-21T02:33:33;3.47;;;1.67;;
92;SDS011;16232;48.800;9.002;2023-11-21T02:36:00;6.07;;;1.67;;
92;SDS011;16232;48.800;9.002;2023-11-21T02:38:28;3.53;;;1.60;;
92;SDS011;16232;48.800;9.002;2023-11-21T02:40:57;1.80;;;1.03;;
92;SDS011;16232;48.800;9.002;2023-11-21T02:43:25;2.87;;;1.30;;
92;SDS011;16232;48.800;9.002;2023-11-21T02:45:53;3.17;;;1.40;;
92;SDS011;16232;48.800;9.002;2023-11-21T02:48:20;3.37;;;1.33;;
92;SDS011;16232;48.800;9.002;2023-11-21T02:50:51;3.30;;;1.30;;
92;SDS011;16232;48.800;9.002;2023-11-21T02:53:18;2.13;;;1.37;;
92;SDS011;16232;48.800;9.002;2023-11-21T02:55:46;4.73;;;1.30;;
92;SDS011;16232;48.800;9.002;2023-11-21T02:58:14;3.70;;;1.43;;
92;SDS011;16232;48.800;9.002;2023-11-21T03:00:42;3.70;;;1.33;;
92;SDS011;16232;48.800;9.002;2023-11-21T03:03:09;1.57;;;1.40;;
92;SDS011;16232;48.800;9.002;2023-11-21T03:05:37;2.90;;;1.13;;
92;SDS011;16232;48.800;9.002;2023-11-21T03:08:04;2.50;;;1.30;;
92;SDS011;16232;48.800;9.002;2023-11-21T03:10:32;4.50;;;1.23;;
92;SDS011;16232;48.800;9.002;2023-11-21T03:12:59;2.70;;;1.17;;
92;SDS011;16232;48.800;9.002;2023-11-21T03:15:28;3.57;;;1.40;;
92;SDS011;16232;48.800;9.002;2023-11-21T03:17:57;2.27;;;1.50;;
92;SDS011;16232;48.800;9.002;2023-11-21T03:20:25;3.63;;;1.20;;
92;SDS011;16232;48.800;9.002;2023-11-21T03:22:52;2.80;;;1.40;;
92;SDS011;16232;48.800;9.002;2023-11-21T03:25:20;4.43;;;1.40;;
92;SDS011;16232;48.800;9.002;2023-11-21T03:27:49;2.07;;;0.87;;
92;SDS011;16232;48.800;9.002;2023-11-21T03:30:16;2.33;;;1.30;;
92;SDS011;16232;48.800;9.002;2023-11-21T03:32:47;3.50;;;1.50;;
92;SDS011;16232;48.800;9.002;2023-11-21T03:35:14;4.60;;;1.80;;
92;SDS011;16232;48.800;9.002;2023-11-21T03:37:42;2.23;;;1.37;;
92;SDS011;16232;48.800;9.002;2023-11-21T03:40:10;3.13;;;1.50;;
92;SDS011;16232;48.800;9.002;2023-11-21T03:42:38;2.57;;;1.47;;
92;SDS011;16232;48.800;9.002;2023-11-21T03:45:06;2.80;;;1.97;;
92;SDS011;16232;48.800;9.002;2023-11-21T03:47:34;3.43;;;1.47;;
92;SDS011;16232;48.800;9.002;2023-11-21T03:50:03;3.33;;;1.73;;
92;SDS011;16232;48.800;9.002;2023-11-21T03:52:30;4.40;;;1.60;;
92;SDS011;16232;48.800;9.002;2023-11-21T03:54:58;2.73;;;1.10;;
92;SDS011;16232;48.800;9.002;2023-11-21T03:57:25;3.93;;;1.43;;
92;SDS011;16232;48.800;9.002;2023-11-21T03:59:54;3.07;;;1.40;;
92;SDS011;16232;48.800;9.002;2023-11-21T04:02:21;3.33;;;1.37;;
92;SDS011;16232;48.800;9.002;2023-11-21T04:04:50;3.17;;;1.43;;
92;SDS011;16232;48.800;9.002;2023-11-21T04:07:19;3.80;;;1.40;;
92;SDS011;16232;48.800;9.002;2023-11-21T04:09:47;3.60;;;1.37;;
92;SDS011;16232;48.800;9.002;2023-11-21T04:12:14;1.70;;;1.00;;
92;SDS011;16232;48.800;9.002;2023-11-21T04:14:42;4.33;;;2.03;;
92;SDS011;16232;48.800;9.002;2023-11-21T04:17:09;3.87;;;1.63;;
92;SDS011;16232;48.800;9.002;2023-11-21T04:19:37;4.63;;;1.43;;
92;SDS011;16232;48.800;9.002;2023-11-21T04:22:04;1.73;;;1.27;;
92;SDS011;16232;48.800;9.002;2023-11-21T04:24:33;2.33;;;1.03;;
92;SDS011;16232;48.800;9.002;2023-11-21T04:27:00;2.80;;;1.70;;
92;SDS011;16232;48.800;9.002;2023-11-21T04:29:28;1.90;;;0.87;;
92;SDS011;16232;48.800;9.002;2023-11-21T04:31:56;3.33;;;1.37;;
92;SDS011;16232;48.800;9.002;2023-11-21T04:34:23;2.17;;;1.30;;
92;SDS011;16232;48.800;9.002;2023-11-21T04:36:51;3.10;;;1.30;;
92;SDS011;16232;48.800;9.002;2023-11-21T04:39:18;2.87;;;1.00;;
92;SDS011;16232;48.800;9.002;2023-11-21T04:41:47;6.30;;;1.60;;
92;SDS011;16232;48.800;9.002;2023-11-21T04:44:15;2.20;;;1.47;;
92;SDS011;16232;48.800;9.002;2023-11-21T04:46:42;2.47;;;1.33;;
92;SDS011;16232;48.800;9.002;2023-11-21T04:49:10;1.77;;;1.00;;
92;SDS011;16232;48.800;9.002;2023-11-21T04:51:37;3.33;;;1.63;;
92;SDS011;16232;48.800;9.002;2023-11-21T04:54:05;2.23;;;1.13;;
92;SDS011;16232;48.800;9.002;2023-11-21T04:56:32;2.23;;;1.00;;
92;SDS011;16232;48.800;9.002;2023-11-21T04:59:01;3.73;;;1.70;;
92;SDS011;16232;48.800;9.002;2023-11-21T05:01:29;1.73;;;1.40;;
92;SDS011;16232;48.800;9.002;2023-11-21T05:03:57;2.17;;;1.67;;
92;SDS011;16232;48.800;9.002;2023-11-21T05:06:24;1.53;;;1.07;;
92;SDS011;16232;48.800;9.002;2023-11-21T05:08:52;2.73;;;1.20;;
92;SDS011;16232;48.800;9.002;2023-11-21T05:11:23;2.80;;;1.20;;
92;SDS011;16232;48.800;9.002;2023-11-21T05:13:51;1.80;;;1.20;;
92;SDS011;16232;48.800;9.002;2023-11-21T05:16:22;2.23;;;1.27;;
92;SDS011;16232;48.800;9.002;2023-11-21T05:18:49;2.20;;;1.30;;
92;SDS011;16232;48.800;9.002;2023-11-21T05:21:17;3.10;;;1.17;;
92;SDS011;16232;48.800;9.002;2023-11-21T05:23:46;3.40;;;1.20;;
92;SDS011;16232;48.800;9.002;2023-11-21T05:26:13;1.10;;;0.97;;
92;SDS011;16232;48.800;9.002;2023-11-21T05:28:40;4.20;;;1.60;;
92;SDS011;16232;48.800;9.002;2023-11-21T05:31:07;4.23;;;2.63;;
92;SDS011;16232;48.800;9.002;2023-11-21T05:33:37;6.27;;;2.70;;
92;SDS011;16232;48.800;9.002;2023-11-21T05:36:05;5.57;;;2.57;;
92;SDS011;16232;48.800;9.002;2023-11-21T05:38:33;2.77;;;1.90;;
92;SDS011;16232;48.800;9.002;2023-11-21T05:41:00;2.53;;;2.00;;
92;SDS011;16232;48.800;9.002;2023-11-21T05:43:28;2.77;;;1.73;;
92;SDS011;16232;48.800;9.002;2023-11-21T05:45:57;1.37;;;1.23;;
92;SDS011;16232;48.800;9.002;2023-11-21T05:48:25;3.60;;;1.40;;
92;SDS011;16232;48.800;9.002;2023-11-21T05:50:53;3.67;;;1.87;;
92;SDS011;16232;48.800;9.002;2023-11-21T05:53:21;3.40;;;1.20;;
92;SDS011;16232;48.800;9.002;2023-11-21T05:55:48;2.00;;;1.77;;
92;SDS011;16232;48.800;9.002;2023-11-21T05:58:16;3.50;;;1.93;;
92;SDS011;16232;48.800;9.002;2023-11-21T06:00:43;2.90;;;2.03;;
92;SDS011;16232;48.800;9.002;2023-11-21T06:03:11;2.20;;;1.67;;
92;SDS011;16232;48.800;9.002;2023-11-21T06:05:38;2.20;;;1.90;;
92;SDS011;16232;48.800;9.002;2023-11-21T06:08:07;5.27;;;2.83;;
92;SDS011;16232;48.800;9.002;2023-11-21T06:10:35;3.80;;;2.47;;
92;SDS011;16232;48.800;9.002;2023-11-21T06:13:04;4.70;;;2.67;;
92;SDS011;16232;48.800;9.002;2023-11-21T06:15:33;2.73;;;1.93;;
92;SDS011;16232;48.800;9.002;2023-11-21T06:18:00;6.03;;;3.50;;
92;SDS011;16232;48.800;9.002;2023-11-21T06:20:28;3.83;;;2.23;;
92;SDS011;16232;48.800;9.002;2023-11-21T06:22:55;5.40;;;3.17;;
92;SDS011;16232;48.800;9.002;2023-11-21T06:25:24;2.80;;;2.30;;
92;SDS011;16232;48.800;9.002;2023-11-21T06:27:52;11.03;;;4.07;;
92;SDS011;16232;48.800;9.002;2023-11-21T06:30:19;5.80;;;3.93;;
92;SDS011;16232;48.800;9.002;2023-11-21T06:32:47;3.90;;;2.67;;
92;SDS011;16232;48.800;9.002;2023-11-21T06:35:15;6.20;;;3.60;;
92;SDS011;16232;48.800;9.002;2023-11-21T06:37:43;5.67;;;3.47;;
92;SDS011;16232;48.800;9.002;2023-11-21T06:40:13;6.30;;;3.60;;
92;SDS011;16232;48.800;9.002;2023-11-21T06:42:42;4.83;;;3.27;;
92;SDS011;16232;48.800;9.002;2023-11-21T06:45:10;5.53;;;4.00;;
92;SDS011;16232;48.800;9.002;2023-11-21T06:47:38;8.07;;;4.40;;
92;SDS011;16232;48.800;9.002;2023-11-21T06:50:06;7.20;;;4.70;;
92;SDS011;16232;48.800;9.002;2023-11-21T06:52:33;8.77;;;6.47;;
92;SDS011;16232;48.800;9.002;2023-11-21T06:55:01;5.63;;;4.50;;
92;SDS011;16232;48.800;9.002;2023-11-21T06:57:28;8.23;;;6.30;;
92;SDS011;16232;48.800;9.002;2023-11-21T06:59:57;6.43;;;4.43;;
92;SDS011;16232;48.800;9.002;2023-11-21T07:02:24;6.77;;;4.03;;
92;SDS011;16232;48.800;9.002;2023-11-21T07:04:52;5.20;;;3.63;;
92;SDS011;16232;48.800;9.002;2023-11-21T07:07:19;5.23;;;3.87;;
92;SDS011;16232;48.800;9.002;2023-11-21T07:09:47;5.23;;;3.43;;
92;SDS011;16232;48.800;9.002;2023-11-21T07:12:14;6.40;;;3.63;;
92;SDS011;16232;48.800;9.002;2023-11-21T07:14:42;5.77;;;3.27;;
92;SDS011;16232;48.800;9.002;2023-11-21T07:17:11;2.17;;;1.97;;
92;SDS011;16232;48.800;9.002;2023-11-21T07:19:39;2.47;;;2.10;;
92;SDS011;16232;48.800;9.002;2023-11-21T07:22:06;6.90;;;3.87;;
92;SDS011;16232;48.800;9.002;2023-11-21T07:24:34;4.20;;;3.10;;
92;SDS011;16232;48.800;9.002;2023-11-21T07:27:02;6.17;;;3.97;;
92;SDS011;16232;48.800;9.002;2023-11-21T07:29:30;7.33;;;4.17;;
92;SDS011;16232;48.800;9.002;2023-11-21T07:31:58;5.63;;;3.43;;
92;SDS011;16232;48.800;9.002;2023-11-21T07:34:27;7.50;;;4.37;;
92;SDS011;16232;48.800;9.002;2023-11-21T07:36:55;5.33;;;3.60;;
92;SDS011;16232;48.800;9.002;2023-11-21T07:39:22;5.97;;;3.40;;
92;SDS011;16232;48.800;9.002;2023-11-21T07:41:50;3.23;;;2.60;;
92;SDS011;16232;48.800;9.002;2023-11-21T07:44:18;6.20;;;4.10;;
92;SDS011;16232;48.800;9.002;2023-11-21T07:46:45;3.57;;;2.40;;
92;SDS011;16232;48.800;9.002;2023-11-21T07:49:14;6.30;;;2.87;;
92;SDS011;16232;48.800;9.002;2023-11-21T07:51:47;6.53;;;3.43;;
92;SDS011;16232;48.800;9.002;2023-11-21T07:54:14;8.50;;;4.47;;
92;SDS011;16232;48.800;9.002;2023-11-21T07:56:41;3.00;;;2.80;;
92;SDS011;16232;48.800;9.002;2023-11-21T07:59:09;9.00;;;3.00;;
92;SDS011;16232;48.800;9.002;2023-11-21T08:01:37;4.37;;;3.50;;
92;SDS011;16232;48.800;9.002;2023-11-21T08:04:05;3.33;;;2.53;;
92;SDS011;16232;48.800;9.002;2023-11-21T08:06:33;3.73;;;2.40;;
92;SDS011;16232;48.800;9.002;2023-11-21T08:09:02;3.37;;;2.40;;
92;SDS011;16232;48.800;9.002;2023-11-21T08:11:30;3.40;;;2.60;;
92;SDS011;16232;48.800;9.002;2023-11-21T08:13:58;2.57;;;2.37;;
92;SDS011;16232;48.800;9.002;2023-11-21T08:16:26;2.97;;;2.40;;
92;SDS011;16232;48.800;9.002;2023-11-21T08:18:53;3.67;;;2.20;;
92;SDS011;16232;48.800;9.002;2023-11-21T08:21:21;2.17;;;1.80;;
92;SDS011;16232;48.800;9.002;2023-11-21T08:23:50;2.20;;;1.87;;
92;SDS011;16232;48.800;9.002;2023-11-21T08:26:21;2.83;;;2.23;;
92;SDS011;16232;48.800;9.002;2023-11-21T08:28:48;4.00;;;2.63;;
92;SDS011;16232;48.800;9.002;2023-11-21T08:31:17;4.17;;;2.40;;
92;SDS011;16232;48.800;9.002;2023-11-21T08:33:44;1.87;;;1.70;;
92;SDS011;16232;48.800;9.002;2023-11-21T08:36:12;3.13;;;2.33;;
92;SDS011;16232;48.800;9.002;2023-11-21T08:38:39;4.70;;;2.23;;
92;SDS011;16232;48.800;9.002;2023-11-21T08:41:07;3.20;;;2.13;;
92;SDS011;16232;48.800;9.002;2023-11-21T08:43:36;3.47;;;2.30;;
92;SDS011;16232;48.800;9.002;2023-11-21T08:46:05;2.97;;;2.47;;
92;SDS011;16232;48.800;9.002;2023-11-21T08:48:34;3.93;;;2.43;;
92;SDS011;16232;48.800;9.002;2023-11-21T08:51:02;3.73;;;2.90;;
92;SDS011;16232;48.800;9.002;2023-11-21T08:53:30;2.80;;;2.60;;
92;SDS011;16232;48.800;9.002;2023-11-21T08:55:58;3.93;;;3.00;;
92;SDS011;16232;48.800;9.002;2023-11-21T08:58:25;4.23;;;2.77;;
92;SDS011;16232;48.800;9.002;2023-11-21T09:00:54;3.70;;;2.50;;
92;SDS011;16232;48.800;9.002;2023-11-21T09:03:22;2.67;;;2.40;;
92;SDS011;16232;48.800;9.002;2023-11-21T09:05:49;3.10;;;2.20;;
92;SDS011;16232;48.800;9.002;2023-11-21T09:08:17;2.40;;;2.20;;
92;SDS011;16232;48.800;9.002;2023-11-21T09:10:44;5.50;;;2.60;;
92;SDS011;16232;48.800;9.002;2023-11-21T09:13:12;4.77;;;3.03;;
92;SDS011;16232;48.800;9.002;2023-11-21T09:15:42;3.83;;;2.50;;
92;SDS011;16232;48.800;9.002;2023-11-21T09:18:13;2.50;;;2.30;;
92;SDS011;16232;48.800;9.002;2023-11-21T09:20:40;4.80;;;2.87;;
92;SDS011;16232;48.800;9.002;2023-11-21T09:23:09;5.40;;;2.70;;
92;SDS011;16232;48.800;9.002;2023-11-21T09:25:36;4.00;;;2.50;;
92;SDS011;16232;48.800;9.002;2023-11-21T09:28:03;2.90;;;2.60;;
92;SDS011;16232;48.800;9.002;2023-11-21T09:30:33;6.33;;;3.53;;
92;SDS011;16232;48.800;9.002;2023-11-21T09:33:00;7.50;;;2.60;;
92;SDS011;16232;48.800;9.002;2023-11-21T09:35:29;2.93;;;2.13;;
92;SDS011;16232;48.800;9.002;2023-11-21T09:37:57;3.57;;;2.17;;
92;SDS011;16232;48.800;9.002;2023-11-21T09:40:26;3.57;;;2.50;;
92;SDS011;16232;48.800;9.002;2023-11-21T09:42:57;3.20;;;2.40;;
92;SDS011;16232;48.800;9.002;2023-11-21T09:45:25;4.87;;;2.50;;
92;SDS011;16232;48.800;9.002;2023-11-21T09:47:54;3.90;;;2.57;;
92;SDS011;16232;48.800;9.002;2023-11-21T09:50:22;4.70;;;3.07;;
92;SDS011;16232;48.800;9.002;2023-11-21T09:52:54;4.40;;;3.97;;
92;SDS011;16232;48.800;9.002;2023-11-21T09:55:22;3.10;;;2.80;;
92;SDS011;16232;48.800;9.002;2023-11-21T09:57:52;3.00;;;2.70;;
92;SDS011;16232;48.800;9.002;2023-11-21T10:00:20;3.20;;;2.70;;
92;SDS011;16232;48.800;9.002;2023-11-21T10:02:49;3.33;;;2.80;;
92;SDS011;16232;48.800;9.002;2023-11-21T10:05:18;2.77;;;2.57;;
92;SDS011;16232;48.800;9.002;2023-11-21T10:07:48;3.27;;;2.47;;
92;SDS011;16232;48.800;9.002;2023-11-21T10:10:19;2.90;;;2.70;;
92;SDS011;16232;48.800;9.002;2023-11-21T10:12:49;5.13;;;2.73;;
92;SDS011;16232;48.800;9.002;2023-11-21T10:15:18;4.40;;;2.50;;
92;SDS011;16232;48.800;9.002;2023-11-21T10:17:48;2.50;;;2.30;;
92;SDS011;16232;48.800;9.002;2023-11-21T10:20:18;3.37;;;3.07;;
92;SDS011;16232;48.800;9.002;2023-11-21T10:22:46;4.63;;;3.40;;
92;SDS011;16232;48.800;9.002;2023-11-21T10:25:14;3.30;;;3.00;;
92;SDS011;16232;48.800;9.002;2023-11-21T10:27:44;5.80;;;2.73;;
92;SDS011;16232;48.800;9.002;2023-11-21T10:30:15;4.00;;;3.57;;
92;SDS011;16232;48.800;9.002;2023-11-21T10:32:43;2.70;;;2.50;;
92;SDS011;16232;48.800;9.002;2023-11-21T10:35:11;3.20;;;2.90;;
92;SDS011;16232;48.800;9.002;2023-11-21T10:37:39;4.13;;;2.63;;
92;SDS011;16232;48.800;9.002;2023-11-21T10:40:07;3.80;;;3.40;;
92;SDS011;16232;48.800;9.002;2023-11-21T10:42:37;3.33;;;3.00;;
92;SDS011;16232;48.800;9.002;2023-11-21T10:45:06;4.30;;;3.90;;
92;SDS011;16232;48.800;9.002;2023-11-21T10:47:38;5.50;;;3.70;;
92;SDS011;16232;48.800;9.002;2023-11-21T10:50:06;2.67;;;2.33;;
92;SDS011;16232;48.800;9.002;2023-11-21T10:52:36;4.37;;;3.53;;
92;SDS011;16232;48.800;9.002;2023-11-21T10:55:13;2.87;;;2.63;;
92;SDS011;16232;48.800;9.002;2023-11-21T10:57:43;2.97;;;2.67;;
92;SDS011;16232;48.800;9.002;2023-11-21T11:00:13;4.17;;;2.90;;
92;SDS011;16232;48.800;9.002;2023-11-21T11:02:46;4.47;;;2.70;;
92;SDS011;16232;48.800;9.002;2023-11-21T11:05:15;3.30;;;3.00;;
92;SDS011;16232;48.800;9.002;2023-11-21T11:07:44;5.37;;;3.80;;
92;SDS011;16232;48.800;9.002;2023-11-21T11:10:14;3.83;;;3.37;;
92;SDS011;16232;48.800;9.002;2023-11-21T11:12:42;3.53;;;3.00;;
92;SDS011;16232;48.800;9.002;2023-11-21T11:15:09;4.27;;;2.97;;
92;SDS011;16232;48.800;9.002;2023-11-21T11:17:39;4.33;;;3.47;;
92;SDS011;16232;48.800;9.002;2023-11-21T11:20:07;4.57;;;2.90;;
92;SDS011;16232;48.800;9.002;2023-11-21T11:22:37;3.57;;;2.37;;
92;SDS011;16232;48.800;9.002;2023-11-21T11:27:52;2.80;;;2.57;;
92;SDS011;16232;48.800;9.002;2023-11-21T11:30:26;2.60;;;2.40;;
92;SDS011;16232;48.800;9.002;2023-11-21T11:32:58;3.57;;;2.40;;
92;SDS011;16232;48.800;9.002;2023-11-21T11:35:33;2.50;;;2.30;;
92;SDS011;16232;48.800;9.002;2023-11-21T11:38:01;2.00;;;1.80;;
92;SDS011;16232;48.800;9.002;2023-11-21T11:40:38;1.73;;;1.30;;
92;SDS011;16232;48.800;9.002;2023-11-21T11:43:07;4.20;;;2.80;;
92;SDS011;16232;48.800;9.002;2023-11-21T11:45:35;2.17;;;2.00;;
92;SDS011;16232;48.800;9.002;2023-11-21T11:48:08;2.37;;;2.27;;
92;SDS011;16232;48.800;9.002;2023-11-21T11:50:38;2.83;;;2.63;;
92;SDS011;16232;48.800;9.002;2023-11-21T11:53:14;2.77;;;2.57;;
92;SDS011;16232;48.800;9.002;2023-11-21T11:55:42;2.80;;;2.60;;
92;SDS011;16232;48.800;9.002;2023-11-21T11:58:10;2.83;;;2.63;;
92;SDS011;16232;48.800;9.002;2023-11-21T12:00:38;3.37;;;2.67;;
92;SDS011;16232;48.800;9.002;2023-11-21T12:03:06;2.70;;;2.50;;
92;SDS011;16232;48.800;9.002;2023-11-21T12:05:35;3.83;;;3.27;;
92;SDS011;16232;48.800;9.002;2023-11-21T12:08:06;3.20;;;3.00;;
92;SDS011;16232;48.800;9.002;2023-11-21T12:10:34;3.27;;;2.97;;
92;SDS011;16232;48.800;9.002;2023-11-21T12:13:02;4.50;;;3.47;;
92;SDS011;16232;48.800;9.002;2023-11-21T12:15:32;3.63;;;3.33;;
92;SDS011;16232;48.800;9.002;2023-11-21T12:18:00;4.20;;;3.80;;
92;SDS011;16232;48.800;9.002;2023-11-21T12:20:28;4.97;;;4.53;;
92;SDS011;16232;48.800;9.002;2023-11-21T12:22:57;4.97;;;4.47;;
92;SDS011;16232;48.800;9.002;2023-11-21T12:25:26;5.73;;;4.43;;
92;SDS011;16232;48.800;9.002;2023-11-21T12:27:54;5.93;;;5.33;;
92;SDS011;16232;48.800;9.002;2023-11-21T12:30:22;5.30;;;4.80;;
92;SDS011;16232;48.800;9.002;2023-11-21T12:32:53;5.33;;;4.83;;
92;SDS011;16232;48.800;9.002;2023-11-21T12:35:21;4.40;;;4.00;;
92;SDS011;16232;48.800;9.002;2023-11-21T12:37:51;3.67;;;3.37;;
92;SDS011;16232;48.800;9.002;2023-11-21T12:40:20;3.50;;;3.13;;
92;SDS011;16232;48.800;9.002;2023-11-21T12:42:48;3.60;;;3.30;;
92;SDS011;16232;48.800;9.002;2023-11-21T12:45:20;3.70;;;3.40;;
92;SDS011;16232;48.800;9.002;2023-11-21T12:47:48;3.77;;;3.47;;
92;SDS011;16232;48.800;9.002;2023-11-21T12:50:18;6.40;;;3.63;;
92;SDS011;16232;48.800;9.002;2023-11-21T12:52:49;4.20;;;3.03;;
92;SDS011;16232;48.800;9.002;2023-11-21T12:55:20;3.00;;;2.77;;
92;SDS011;16232;48.800;9.002;2023-11-21T12:57:48;3.87;;;3.57;;
92;SDS011;16232;48.800;9.002;2023-11-21T13:00:17;4.50;;;4.10;;
92;SDS011;16232;48.800;9.002;2023-11-21T13:02:54;4.20;;;3.80;;
92;SDS011;16232;48.800;9.002;2023-11-21T13:05:26;4.77;;;4.07;;
92;SDS011;16232;48.800;9.002;2023-11-21T13:07:54;5.67;;;5.17;;
92;SDS011;16232;48.800;9.002;2023-11-21T13:10:24;4.63;;;4.13;;
92;SDS011;16232;48.800;9.002;2023-11-21T13:12:54;7.17;;;5.07;;
92;SDS011;16232;48.800;9.002;2023-11-21T13:15:23;6.00;;;5.40;;
92;SDS011;16232;48.800;9.002;2023-11-21T13:17:51;5.00;;;4.30;;
92;SDS011;16232;48.800;9.002;2023-11-21T13:20:19;3.47;;;2.27;;
92;SDS011;16232;48.800;9.002;2023-11-21T13:22:47;2.17;;;1.80;;
92;SDS011;16232;48.800;9.002;2023-11-21T13:25:16;2.47;;;1.10;;
92;SDS011;16232;48.800;9.002;2023-11-21T13:27:46;0.90;;;0.90;;
92;SDS011;16232;48.800;9.002;2023-11-21T13:30:14;1.30;;;1.00;;
92;SDS011;16232;48.800;9.002;2023-11-21T13:32:42;1.27;;;1.17;;
92;SDS011;16232;48.800;9.002;2023-11-21T13:35:11;1.20;;;1.07;;
92;SDS011;16232;48.800;9.002;2023-11-21T13:37:49;2.10;;;1.60;;
92;SDS011;16232;48.800;9.002;2023-11-21T13:40:21;2.23;;;1.30;;
92;SDS011;16232;48.800;9.002;2023-11-21T13:42:52;1.33;;;1.23;;
92;SDS011;16232;48.800;9.002;2023-11-21T13:45:21;2.77;;;2.27;;
92;SDS011;16232;48.800;9.002;2023-11-21T13:47:49;1.80;;;1.70;;
92;SDS011;16232;48.800;9.002;2023-11-21T13:50:23;2.70;;;2.00;;
92;SDS011;16232;48.800;9.002;2023-11-21T13:52:55;2.27;;;1.73;;
92;SDS011;16232;48.800;9.002;2023-11-21T13:55:23;2.90;;;2.43;;
92;SDS011;16232;48.800;9.002;2023-11-21T13:57:52;3.27;;;2.20;;
92;SDS011;16232;48.800;9.002;2023-11-21T14:00:20;2.50;;;2.30;;
92;SDS011;16232;48.800;9.002;2023-11-21T14:03:10;2.17;;;2.07;;
92;SDS011;16232;48.800;9.002;2023-11-21T14:05:45;2.23;;;2.00;;
92;SDS011;16232;48.800;9.002;2023-11-21T14:08:17;2.43;;;2.20;;
92;SDS011;16232;48.800;9.002;2023-11-21T14:10:45;2.20;;;2.00;;
92;SDS011;16232;48.800;9.002;2023-11-21T14:13:17;3.40;;;2.30;;
92;SDS011;16232;48.800;9.002;2023-11-21T14:15:48;3.90;;;2.00;;
92;SDS011;16232;48.800;9.002;2023-11-21T14:18:23;2.27;;;2.07;;
92;SDS011;16232;48.800;9.002;2023-11-21T14:20:56;3.13;;;2.07;;
92;SDS011;16232;48.800;9.002;2023-11-21T14:23:23;2.30;;;2.10;;
92;SDS011;16232;48.800;9.002;2023-11-21T14:25:51;2.63;;;2.00;;
92;SDS011;16232;48.800;9.002;2023-11-21T14:28:19;2.47;;;2.27;;
92;SDS011;16232;48.800;9.002;2023-11-21T14:30:48;1.70;;;1.60;;
92;SDS011;16232;48.800;9.002;2023-11-21T14:33:15;2.83;;;2.60;;
92;SDS011;16232;48.800;9.002;2023-11-21T14:35:43;2.87;;;2.60;;
92;SDS011;16232;48.800;9.002;2023-11-21T14:38:11;2.53;;;2.33;;
92;SDS011;16232;48.800;9.002;2023-11-21T14:40:40;3.20;;;2.13;;
92;SDS011;16232;48.800;9.002;2023-11-21T14:43:07;4.03;;;2.70;;
92;SDS011;16232;48.800;9.002;2023-11-21T14:45:36;2.13;;;1.60;;
92;SDS011;16232;48.800;9.002;2023-11-21T14:48:04;2.37;;;1.83;;
92;SDS011;16232;48.800;9.002;2023-11-21T14:50:36;1.47;;;1.30;;
92;SDS011;16232;48.800;9.002;2023-11-21T14:53:18;2.37;;;1.53;;
92;SDS011;16232;48.800;9.002;2023-11-21T14:56:07;1.63;;;1.40;;
92;SDS011;16232;48.800;9.002;2023-11-21T14:58:33;1.50;;;1.40;;
92;SDS011;16232;48.800;9.002;2023-11-21T15:01:04;1.73;;;1.53;;
92;SDS011;16232;48.800;9.002;2023-11-21T15:03:33;2.87;;;2.30;;
92;SDS011;16232;48.800;9.002;2023-11-21T15:06:14;2.00;;;1.80;;
92;SDS011;16232;48.800;9.002;2023-11-21T15:08:48;2.13;;;1.93;;
92;SDS011;16232;48.800;9.002;2023-11-21T15:11:21;2.50;;;2.10;;
92;SDS011;16232;48.800;9.002;2023-11-21T15:13:55;2.37;;;2.17;;
92;SDS011;16232;48.800;9.002;2023-11-21T15:16:24;3.17;;;2.60;;
92;SDS011;16232;48.800;9.002;2023-11-21T15:18:52;3.60;;;3.30;;
92;SDS011;16232;48.800;9.002;2023-11-21T15:21:20;3.00;;;2.70;;
92;SDS011;16232;48.800;9.002;2023-11-21T15:23:49;4.67;;;4.20;;
92;SDS011;16232;48.800;9.002;2023-11-21T15:26:17;5.20;;;4.37;;
92;SDS011;16232;48.800;9.002;2023-11-21T15:28:44;5.20;;;4.70;;
92;SDS011;16232;48.800;9.002;2023-11-21T15:31:12;6.10;;;5.27;;
92;SDS011;16232;48.800;9.002;2023-11-21T15:33:43;8.03;;;5.93;;
92;SDS011;16232;48.800;9.002;2023-11-21T15:36:10;5.80;;;5.20;;
92;SDS011;16232;48.800;9.002;2023-11-21T15:38:39;5.93;;;5.40;;
92;SDS011;16232;48.800;9.002;2023-11-21T15:41:06;4.40;;;4.00;;